Terminal Aerodrome Forecast
Issued by NWS

Home | Current Version | Previous Version | Text Only | Print | Product List | Glossary On
Versions: 1 2 3 4 5 6 7 8 9 10 11 12 13
000
FTUS46 KMTR 302320
TAFOAK
TAF
KOAK 302320Z 0100/0206 28014G21KT P6SM SKC
     FM010400 28006KT P6SM SKC
     FM010600 VRB03KT P6SM SKC
     FM011600 12005KT P6SM SKC
     FM012100 26008KT P6SM SKC
     FM020400 31005KT P6SM SKC=

USA.gov is the U.S. government's official web portal to all federal, state and local government web resources and services.